Time;durP1;ratioP1;P1;durP2;ratioP2;P2;SDS_P1;SDS_P2;PMS_P1;PMS_P2;Temp;Humidity;BMP_temperature;BMP_pressure;BME280_temperature;BME280_humidity;BME280_pressure;Samples;Min_cycle;Max_cycle;Signal;HPM_P1;HPM_P2
2023/09/28 00:01:23;;;;;;;;;;;;;;;20.09;52.04;99870.28;3151808;28;19928;-72
2023/09/28 00:02:54;;;;;;;;;;;;;;;20.07;52.17;99869.56;3152905;28;19928;-72
2023/09/28 00:04:25;;;;;;;;;;;;;;;20.02;52.16;99871.75;3152956;28;19932;-72
2023/09/28 00:05:56;;;;;;;;;;;;;;;20.00;52.20;99869.25;3149152;28;19928;-72
2023/09/28 00:07:27;;;;;;;;;;;;;;;19.99;52.44;99869.38;3153055;28;20008;-72
2023/09/28 00:08:58;;;;;;;;;;;;;;;20.00;52.37;99865.78;3152688;28;20019;-70
2023/09/28 00:10:30;;;;;;;;;;;;;;;20.01;52.40;99862.16;3152942;28;20015;-72
2023/09/28 00:12:02;;;;;;;;;;;;;;;20.00;52.54;99856.03;3152553;28;19935;-72
2023/09/28 00:13:32;;;;;;;;;;;;;;;19.93;52.81;99865.41;3152711;28;20393;-72
2023/09/28 00:15:05;;;;;;;;;;;;;;;19.88;52.87;99859.72;3152704;28;19928;-72
2023/09/28 00:16:36;;;;;;;;;;;;;;;19.88;52.77;99848.31;3148469;28;20192;-72
2023/09/28 00:18:08;;;;;;;;;;;;;;;19.83;53.11;99846.03;3152409;28;19935;-71
2023/09/28 00:19:38;;;;;;;;;;;;;;;19.80;53.27;99848.94;3152257;28;19935;-71
2023/09/28 00:21:10;;;;;;;;;;;;;;;19.78;53.37;99851.69;3152820;28;19935;-71
2023/09/28 00:22:41;;;;;;;;;;;;;;;19.70;53.60;99859.41;3152376;28;19996;-72
2023/09/28 00:24:13;;;;;;;;;;;;;;;19.68;53.48;99853.41;3152383;28;20392;-71
2023/09/28 00:25:43;;;;;;;;;;;;;;;19.68;53.78;99853.41;3152506;28;19928;-71
2023/09/28 00:27:15;;;;;;;;;;;;;;;19.67;53.64;99849.09;3152997;28;20448;-71
2023/09/28 00:28:45;;;;;;;;;;;;;;;19.63;54.06;99846.78;3152583;28;20423;-71
2023/09/28 00:30:18;;;;;;;;;;;;;;;19.61;53.90;99860.16;3152467;28;20027;-72
2023/09/28 00:31:50;;;;;;;;;;;;;;;19.62;54.12;99859.16;3152520;28;19928;-72
2023/09/28 00:33:20;;;;;;;;;;;;;;;19.62;53.94;99858.34;3152747;28;19935;-72
2023/09/28 00:34:51;;;;;;;;;;;;;;;19.64;53.63;99857.25;3152020;28;20601;-72
2023/09/28 00:36:24;;;;;;;;;;;;;;;19.66;53.71;99857.97;3152654;28;19928;-72
2023/09/28 00:37:54;;;;;;;;;;;;;;;19.65;53.58;99851.03;3154109;28;19996;-72
2023/09/28 00:39:27;;;;;;;;;;;;;;;19.60;54.00;99860.25;3154951;28;20431;-72
2023/09/28 00:40:57;;;;;;;;;;;;;;;19.52;54.16;99863.50;3152404;28;20333;-72
2023/09/28 00:42:29;;;;;;;;;;;;;;;19.47;54.12;99863.91;3152322;28;19928;-72
2023/09/28 00:44:00;;;;;;;;;;;;;;;19.39;54.66;99861.03;3152233;28;19984;-72
2023/09/28 00:45:33;;;;;;;;;;;;;;;19.33;54.64;99857.09;3152142;28;20030;-72
2023/09/28 00:47:05;;;;;;;;;;;;;;;19.22;54.87;99854.47;3152308;28;19951;-72
2023/09/28 00:48:39;;;;;;;;;;;;;;;19.12;55.31;99853.53;3152355;28;20705;-72
2023/09/28 00:50:14;;;;;;;;;;;;;;;19.09;55.35;99853.78;3152406;28;20015;-72
2023/09/28 00:51:47;;;;;;;;;;;;;;;19.07;55.15;99851.25;3152304;28;20160;-72
2023/09/28 00:53:20;;;;;;;;;;;;;;;19.07;55.03;99853.06;3152397;28;19927;-72
2023/09/28 00:54:52;;;;;;;;;;;;;;;19.00;55.16;99854.53;3145052;28;19934;-71
2023/09/28 00:56:23;;;;;;;;;;;;;;;18.92;55.54;99854.28;3152727;28;19928;-73
2023/09/28 00:57:57;;;;;;;;;;;;;;;18.90;55.48;99849.16;3147570;28;19936;-73
2023/09/28 00:59:28;;;;;;;;;;;;;;;18.89;55.58;99858.00;3151889;28;19928;-72
2023/09/28 01:01:00;;;;;;;;;;;;;;;18.86;55.59;99855.59;3152593;28;19935;-72
2023/09/28 01:02:31;;;;;;;;;;;;;;;18.80;55.67;99856.09;3139773;28;20090;-72
2023/09/28 01:04:05;;;;;;;;;;;;;;;18.75;55.68;99853.81;3151440;28;20408;-72
2023/09/28 01:05:39;;;;;;;;;;;;;;;18.72;55.89;99846.09;3149101;28;20445;-71
2023/09/28 01:07:12;;;;;;;;;;;;;;;18.72;55.71;99846.09;3152410;28;19928;-71
2023/09/28 01:08:43;;;;;;;;;;;;;;;18.70;55.66;99842.75;3152192;28;19962;-71
2023/09/28 01:10:17;;;;;;;;;;;;;;;18.62;55.86;99845.97;3152319;28;19932;-72
2023/09/28 01:11:51;;;;;;;;;;;;;;;18.68;55.65;99849.94;3151806;28;19928;-71
2023/09/28 01:13:23;;;;;;;;;;;;;;;18.69;55.70;99854.25;3152301;28;19928;-72
2023/09/28 01:14:56;;;;;;;;;;;;;;;18.68;55.53;99844.66;3152215;28;19978;-72
2023/09/28 01:16:28;;;;;;;;;;;;;;;18.69;55.37;99850.78;3151715;28;19971;-71
2023/09/28 01:17:59;;;;;;;;;;;;;;;18.69;55.32;99846.34;3153887;28;19940;-71
2023/09/28 01:19:31;;;;;;;;;;;;;;;18.70;55.32;99848.03;3154763;28;19928;-72
2023/09/28 01:21:02;;;;;;;;;;;;;;;18.71;55.17;99849.69;3154817;28;19928;-72
2023/09/28 01:22:35;;;;;;;;;;;;;;;18.71;55.21;99844.44;3154384;28;19927;-72
2023/09/28 01:24:06;;;;;;;;;;;;;;;18.72;55.06;99846.09;3154612;28;19928;-72
2023/09/28 01:25:39;;;;;;;;;;;;;;;18.74;54.98;99844.22;3154808;28;19928;-71
2023/09/28 01:27:10;;;;;;;;;;;;;;;18.77;55.04;99845.78;3154806;28;19989;-71
2023/09/28 01:28:42;;;;;;;;;;;;;;;18.78;54.96;99845.66;3154458;28;20424;-73
2023/09/28 01:30:13;;;;;;;;;;;;;;;18.79;54.87;99844.69;3154516;28;19975;-72
2023/09/28 01:31:44;;;;;;;;;;;;;;;18.79;54.69;99836.78;3142061;28;19929;-73
2023/09/28 01:33:16;;;;;;;;;;;;;;;18.82;54.55;99838.34;3153837;28;20557;-73
2023/09/28 01:34:46;;;;;;;;;;;;;;;18.84;54.58;99839.91;3154565;28;19939;-73
2023/09/28 01:36:18;;;;;;;;;;;;;;;18.86;54.47;99840.59;3154385;28;20826;-73
2023/09/28 01:37:57;;;;;;;;;;;;;;;18.89;54.38;99839.53;3156921;28;19962;-73
2023/09/28 01:39:28;;;;;;;;;;;;;;;18.91;54.33;99842.06;3157237;28;19928;-73
2023/09/28 01:41:00;;;;;;;;;;;;;;;18.93;54.40;99840.97;3154532;28;19928;-74
2023/09/28 01:42:30;;;;;;;;;;;;;;;18.95;54.39;99838.22;3154882;28;20584;-73
2023/09/28 01:44:01;;;;;;;;;;;;;;;18.97;54.28;99833.66;3154324;28;19928;-73
2023/09/28 01:45:33;;;;;;;;;;;;;;;19.00;54.29;99833.41;3154345;28;19939;-73
2023/09/28 01:47:04;;;;;;;;;;;;;;;18.99;54.19;99834.34;3154485;28;20035;-73
2023/09/28 01:48:35;;;;;;;;;;;;;;;18.97;54.33;99837.13;3154561;28;19957;-73
2023/09/28 01:50:06;;;;;;;;;;;;;;;18.97;54.43;99831.00;3154103;28;20106;-73
2023/09/28 01:51:38;;;;;;;;;;;;;;;18.99;54.32;99829.06;3154490;28;20522;-73
2023/09/28 01:53:10;;;;;;;;;;;;;;;19.00;54.33;99828.97;3154422;28;20339;-73
2023/09/28 01:54:40;;;;;;;;;;;;;;;19.00;54.14;99825.50;3154423;28;19932;-73
2023/09/28 01:56:12;;;;;;;;;;;;;;;19.01;54.25;99829.81;3154503;28;19938;-73
2023/09/28 01:57:43;;;;;;;;;;;;;;;19.02;54.31;99834.13;3150826;28;19988;-73
2023/09/28 01:59:15;;;;;;;;;;;;;;;19.04;54.28;99840.09;3154157;28;20016;-73
2023/09/28 02:00:46;;;;;;;;;;;;;;;19.03;54.16;99835.81;3154144;28;20379;-72
2023/09/28 02:02:16;;;;;;;;;;;;;;;19.05;54.27;99836.53;3154200;28;19939;-71
2023/09/28 02:03:48;;;;;;;;;;;;;;;19.07;54.07;99834.59;3154630;28;20472;-72
2023/09/28 02:05:19;;;;;;;;;;;;;;;19.07;54.11;99837.22;3151699;28;20333;-72
2023/09/28 02:06:50;;;;;;;;;;;;;;;19.06;54.03;99836.38;3154003;28;19928;-71
2023/09/28 02:08:22;;;;;;;;;;;;;;;19.06;54.12;99833.75;3154395;28;19928;-72
2023/09/28 02:09:53;;;;;;;;;;;;;;;19.06;54.11;99839.03;3154333;28;20469;-72
2023/09/28 02:11:25;;;;;;;;;;;;;;;19.07;54.15;99834.59;3154570;28;19927;-71
2023/09/28 02:12:55;;;;;;;;;;;;;;;19.05;53.94;99847.09;3154423;28;19928;-72
2023/09/28 02:14:26;;;;;;;;;;;;;;;19.05;54.24;99833.88;3154128;28;20172;-72
2023/09/28 02:15:58;;;;;;;;;;;;;;;19.04;54.14;99837.47;3153981;28;20425;-71
2023/09/28 02:17:28;;;;;;;;;;;;;;;19.04;54.09;99840.94;3154248;28;19928;-72
2023/09/28 02:18:59;;;;;;;;;;;;;;;19.04;54.25;99840.09;3154252;28;20383;-72
2023/09/28 02:20:31;;;;;;;;;;;;;;;18.99;54.44;99842.28;3153979;28;19938;-71
2023/09/28 02:22:02;;;;;;;;;;;;;;;18.93;54.69;99834.84;3154482;28;19988;-71
2023/09/28 02:23:35;;;;;;;;;;;;;;;18.91;54.44;99840.25;3153938;28;19928;-71
2023/09/28 02:25:08;;;;;;;;;;;;;;;18.89;54.55;99842.16;3154073;28;19950;-70
2023/09/28 02:26:39;;;;;;;;;;;;;;;18.88;54.52;99844.94;3153959;28;20424;-71
2023/09/28 02:28:11;;;;;;;;;;;;;;;18.91;54.57;99839.41;3153882;28;19935;-70
2023/09/28 02:29:42;;;;;;;;;;;;;;;18.93;54.38;99843.63;3152813;28;19998;-70
2023/09/28 02:31:12;;;;;;;;;;;;;;;18.95;54.36;99839.03;3153846;28;20432;-70
2023/09/28 02:32:44;;;;;;;;;;;;;;;18.97;54.39;99846.84;3153970;28;19928;-70
2023/09/28 02:34:15;;;;;;;;;;;;;;;18.96;54.36;99851.28;3153655;28;19928;-70
2023/09/28 02:35:47;;;;;;;;;;;;;;;18.97;54.35;99845.03;3153336;28;20266;-70
2023/09/28 02:37:19;;;;;;;;;;;;;;;18.96;54.09;99839.88;3154104;28;20387;-70
2023/09/28 02:38:51;;;;;;;;;;;;;;;18.95;54.21;99839.03;3160275;28;19989;-70
2023/09/28 02:40:23;;;;;;;;;;;;;;;18.92;54.27;99838.44;3153806;28;20372;-70
2023/09/28 02:41:54;;;;;;;;;;;;;;;18.91;54.39;99832.34;3153269;28;19951;-69
2023/09/28 02:43:25;;;;;;;;;;;;;;;18.94;54.29;99833.91;3153931;28;19927;-71
2023/09/28 02:44:57;;;;;;;;;;;;;;;18.95;54.20;99839.03;3154049;28;19935;-71
2023/09/28 02:46:27;;;;;;;;;;;;;;;18.97;54.05;99841.56;3153239;28;19932;-71
2023/09/28 02:47:58;;;;;;;;;;;;;;;18.99;53.97;99847.53;3141133;28;20132;-71
2023/09/28 02:49:30;;;;;;;;;;;;;;;18.97;54.15;99837.13;3152798;28;19928;-72
2023/09/28 02:51:02;;;;;;;;;;;;;;;18.93;54.12;99838.34;3153796;28;20015;-72
2023/09/28 02:52:34;;;;;;;;;;;;;;;18.92;54.29;99843.72;3153465;28;19928;-72
2023/09/28 02:54:07;;;;;;;;;;;;;;;18.91;54.22;99842.91;3153697;28;19932;-72
2023/09/28 02:55:38;;;;;;;;;;;;;;;18.94;54.09;99844.44;3153393;28;19928;-71
2023/09/28 02:57:09;;;;;;;;;;;;;;;18.93;54.11;99845.41;3150697;28;19981;-71
2023/09/28 02:58:40;;;;;;;;;;;;;;;18.98;53.93;99846.72;3148485;28;20351;-72
2023/09/28 03:00:18;;;;;;;;;;;;;;;18.99;53.99;99851.06;3153046;28;19935;-73
2023/09/28 03:01:48;;;;;;;;;;;;;;;19.01;54.04;99845.63;3153678;28;19935;-72
2023/09/28 03:03:19;;;;;;;;;;;;;;;19.02;54.11;99853.44;3153683;28;19971;-72
2023/09/28 03:04:50;;;;;;;;;;;;;;;19.01;54.01;99854.38;3152704;28;20534;-72
2023/09/28 03:06:21;;;;;;;;;;;;;;;19.01;53.95;99846.47;3151411;28;20005;-72
2023/09/28 03:07:53;;;;;;;;;;;;;;;19.03;54.08;99851.63;3153293;28;20014;-73
2023/09/28 03:09:25;;;;;;;;;;;;;;;19.05;53.98;99845.28;3153499;28;20015;-72
2023/09/28 03:10:57;;;;;;;;;;;;;;;19.06;53.85;99854.88;3152888;28;19932;-72
2023/09/28 03:12:27;;;;;;;;;;;;;;;19.06;53.95;99846.13;3158298;28;19924;-73
2023/09/28 03:13:59;;;;;;;;;;;;;;;19.06;53.82;99846.94;3158499;28;20434;-74
2023/09/28 03:15:29;;;;;;;;;;;;;;;19.09;53.73;99848.50;3158485;28;19981;-73
2023/09/28 03:17:01;;;;;;;;;;;;;;;19.06;54.02;99849.59;3158843;28;19924;-73
2023/09/28 03:18:32;;;;;;;;;;;;;;;19.08;53.93;99849.47;3158666;28;19924;-73
2023/09/28 03:20:04;;;;;;;;;;;;;;;19.07;54.06;99853.91;3158649;28;20073;-73
2023/09/28 03:21:36;;;;;;;;;;;;;;;19.10;53.87;99856.28;3158608;28;19930;-73
2023/09/28 03:23:07;;;;;;;;;;;;;;;19.09;53.98;99851.97;3158177;28;20010;-73
2023/09/28 03:24:40;;;;;;;;;;;;;;;19.12;53.87;99845.63;3154814;28;20021;-72
2023/09/28 03:26:10;;;;;;;;;;;;;;;19.12;53.87;99845.63;3158427;28;20317;-73
2023/09/28 03:27:43;;;;;;;;;;;;;;;19.10;54.05;99840.44;3158104;28;19946;-73
2023/09/28 03:29:13;;;;;;;;;;;;;;;19.11;53.90;99846.59;3158689;28;20451;-72
2023/09/28 03:30:45;;;;;;;;;;;;;;;19.12;54.03;99842.97;3158313;28;19924;-73
2023/09/28 03:32:15;;;;;;;;;;;;;;;19.11;53.97;99836.03;3158085;28;19928;-73
2023/09/28 03:33:46;;;;;;;;;;;;;;;19.11;53.92;99843.94;3158462;28;19935;-72
2023/09/28 03:35:18;;;;;;;;;;;;;;;19.14;53.80;99841.06;3158552;28;19924;-73
2023/09/28 03:36:50;;;;;;;;;;;;;;;19.18;53.63;99844.28;3158316;28;19928;-73
2023/09/28 03:38:20;;;;;;;;;;;;;;;19.20;53.72;99839.75;3159976;28;19935;-73
2023/09/28 03:39:53;;;;;;;;;;;;;;;19.19;53.67;99844.16;3157506;28;19932;-73
2023/09/28 03:41:25;;;;;;;;;;;;;;;19.21;53.66;99842.25;3158500;28;20381;-73
2023/09/28 03:42:57;;;;;;;;;;;;;;;19.24;53.48;99847.28;3155477;28;19931;-73
2023/09/28 03:44:27;;;;;;;;;;;;;;;19.28;53.49;99853.97;3158170;28;19931;-73
2023/09/28 03:45:59;;;;;;;;;;;;;;;19.29;53.44;99847.75;3157629;28;20737;-72
2023/09/28 03:47:29;;;;;;;;;;;;;;;19.32;53.32;99855.44;3158455;28;20352;-73
2023/09/28 03:49:01;;;;;;;;;;;;;;;19.35;53.21;99856.16;3158317;28;19924;-74
2023/09/28 03:50:31;;;;;;;;;;;;;;;19.35;53.29;99853.50;3158013;28;20321;-73
2023/09/28 03:52:03;;;;;;;;;;;;;;;19.35;53.19;99856.97;3158149;28;19928;-73
2023/09/28 03:53:39;;;;;;;;;;;;;;;19.36;53.21;99857.81;3158292;28;20324;-73
2023/09/28 03:55:12;;;;;;;;;;;;;;;19.33;53.33;99858.91;3158069;28;19924;-72
2023/09/28 03:57:08;;;;;;;;;;;;;;;19.29;53.48;99860.13;3157994;28;20016;-72
2023/09/28 03:58:39;;;;;;;;;;;;;;;19.28;53.06;99861.91;3146191;28;20022;-72
2023/09/28 04:00:12;;;;;;;;;;;;;;;19.27;53.29;99868.16;3157167;28;19924;-72
2023/09/28 04:01:44;;;;;;;;;;;;;;;19.27;53.22;99867.31;3154549;28;20018;-72
2023/09/28 04:03:16;;;;;;;;;;;;;;;19.28;53.27;99867.19;3157810;28;19924;-73
2023/09/28 04:04:46;;;;;;;;;;;;;;;19.27;53.41;99862.88;3157577;28;20015;-72
2023/09/28 04:06:18;;;;;;;;;;;;;;;19.26;53.25;99860.38;3154675;28;19924;-71
2023/09/28 04:07:49;;;;;;;;;;;;;;;19.24;53.18;99863.13;3158204;28;19981;-71
2023/09/28 04:09:21;;;;;;;;;;;;;;;19.27;53.26;99867.31;3157291;28;19949;-74
2023/09/28 04:10:55;;;;;;;;;;;;;;;19.28;53.23;99872.44;3151268;28;19974;-70
2023/09/28 04:12:25;;;;;;;;;;;;;;;19.28;53.10;99856.63;3157938;28;20016;-72
2023/09/28 04:13:57;;;;;;;;;;;;;;;19.30;53.08;99859.16;3157352;28;19924;-74
2023/09/28 04:15:28;;;;;;;;;;;;;;;19.31;52.94;99868.72;3157094;28;20023;-71
2023/09/28 04:16:59;;;;;;;;;;;;;;;19.31;52.93;99863.44;3158036;28;20420;-75
2023/09/28 04:18:31;;;;;;;;;;;;;;;19.29;52.96;99870.69;3157877;28;20021;-74
2023/09/28 04:20:04;;;;;;;;;;;;;;;19.26;53.08;99871.75;3157741;28;19924;-76
2023/09/28 04:21:36;;;;;;;;;;;;;;;19.28;53.15;99874.25;3157841;28;19924;-77
2023/09/28 04:23:08;;;;;;;;;;;;;;;19.29;53.03;99871.50;3157966;28;20461;-71
2023/09/28 04:24:40;;;;;;;;;;;;;;;19.30;52.92;99872.34;3157337;28;20011;-73
2023/09/28 04:26:13;;;;;;;;;;;;;;;19.27;53.07;99873.44;3157719;28;19931;-70
2023/09/28 04:27:43;;;;;;;;;;;;;;;19.20;53.35;99874.91;3157571;28;19939;-69
2023/09/28 04:29:15;;;;;;;;;;;;;;;19.14;53.53;99871.88;3158043;28;19924;-69
2023/09/28 04:30:46;;;;;;;;;;;;;;;19.13;53.58;99880.78;3157847;28;19954;-69
2023/09/28 04:32:17;;;;;;;;;;;;;;;19.12;53.46;99879.94;3157551;28;19924;-69
2023/09/28 04:33:49;;;;;;;;;;;;;;;19.13;53.45;99881.59;3157318;28;19935;-67
2023/09/28 04:35:20;;;;;;;;;;;;;;;19.15;53.53;99877.06;3157968;28;20027;-68
2023/09/28 04:36:52;;;;;;;;;;;;;;;19.10;53.68;99887.97;3157260;28;20009;-68
2023/09/28 04:38:22;;;;;;;;;;;;;;;19.07;53.77;99884.72;3160726;28;20380;-69
2023/09/28 04:39:54;;;;;;;;;;;;;;;19.05;53.84;99890.16;3156614;28;19928;-69
2023/09/28 04:41:26;;;;;;;;;;;;;;;19.03;53.91;99889.41;3158073;28;19931;-65
2023/09/28 04:42:57;;;;;;;;;;;;;;;19.07;53.69;99887.38;3157176;28;20306;-65
2023/09/28 04:44:28;;;;;;;;;;;;;;;19.07;53.59;99892.66;3155023;28;19958;-69
2023/09/28 04:46:04;;;;;;;;;;;;;;;19.10;53.63;99892.41;3153897;28;19944;-71
2023/09/28 04:47:36;;;;;;;;;;;;;;;19.10;53.61;99889.78;3157293;28;19932;-68
2023/09/28 04:49:07;;;;;;;;;;;;;;;19.10;53.79;99895.88;3147947;28;19924;-67
2023/09/28 04:50:39;;;;;;;;;;;;;;;19.14;53.61;99893.00;3154214;28;20397;-65
2023/09/28 04:52:10;;;;;;;;;;;;;;;19.16;53.62;99897.19;3156805;28;20411;-69
2023/09/28 04:53:42;;;;;;;;;;;;;;;19.20;53.37;99896.00;3157574;28;19931;-70
2023/09/28 04:55:12;;;;;;;;;;;;;;;19.22;53.43;99902.00;3157324;28;20376;-67
2023/09/28 04:56:45;;;;;;;;;;;;;;;19.22;53.49;99899.34;3157335;28;19928;-67
2023/09/28 04:58:17;;;;;;;;;;;;;;;19.26;53.32;99907.88;3151609;28;19928;-67
2023/09/28 04:59:48;;;;;;;;;;;;;;;19.26;53.33;99907.88;3157107;28;20343;-68
2023/09/28 05:01:20;;;;;;;;;;;;;;;19.22;53.28;99902.00;3156938;28;19968;-66
2023/09/28 05:02:52;;;;;;;;;;;;;;;19.19;53.42;99910.16;3157394;28;19936;-70
2023/09/28 05:04:23;;;;;;;;;;;;;;;19.18;53.52;99911.13;3157507;28;19932;-70
2023/09/28 05:05:55;;;;;;;;;;;;;;;19.16;53.43;99906.91;3153478;28;19990;-69
2023/09/28 05:07:25;;;;;;;;;;;;;;;19.16;53.39;99907.75;3157444;28;19973;-70
2023/09/28 05:08:57;;;;;;;;;;;;;;;19.16;53.40;99905.13;3157081;28;20018;-70
2023/09/28 05:10:28;;;;;;;;;;;;;;;19.20;53.28;99911.03;3157403;28;20373;-69
2023/09/28 05:12:01;;;;;;;;;;;;;;;19.23;53.27;99908.13;3156719;28;19928;-70
2023/09/28 05:13:32;;;;;;;;;;;;;;;19.25;53.14;99904.38;3156941;28;19930;-70
2023/09/28 05:15:04;;;;;;;;;;;;;;;19.23;53.26;99903.69;3157426;28;20312;-67
2023/09/28 05:16:35;;;;;;;;;;;;;;;19.23;53.43;99903.69;3157075;28;20415;-68
2023/09/28 05:18:06;;;;;;;;;;;;;;;19.25;53.21;99904.38;3156694;28;19928;-67
2023/09/28 05:19:38;;;;;;;;;;;;;;;19.24;53.33;99902.72;3154722;28;20001;-68
2023/09/28 05:21:10;;;;;;;;;;;;;;;19.20;53.47;99903.94;3150213;28;20070;-66
2023/09/28 05:22:43;;;;;;;;;;;;;;;19.18;53.44;99907.66;3156951;28;20372;-65
2023/09/28 05:24:14;;;;;;;;;;;;;;;19.16;53.64;99907.75;3157100;28;19939;-65
2023/09/28 05:25:45;;;;;;;;;;;;;;;19.16;53.45;99906.91;3144624;28;19948;-64
2023/09/28 05:27:18;;;;;;;;;;;;;;;19.17;53.54;99906.81;3156719;28;19928;-65
2023/09/28 05:28:49;;;;;;;;;;;;;;;19.19;53.26;99912.78;3156791;28;19928;-65
2023/09/28 05:30:21;;;;;;;;;;;;;;;19.21;53.30;99916.16;3157046;28;19924;-64
2023/09/28 05:31:52;;;;;;;;;;;;;;;19.24;53.29;99913.28;3156886;28;19935;-63
2023/09/28 05:33:23;;;;;;;;;;;;;;;19.27;53.27;99910.38;3157425;28;19928;-64
2023/09/28 05:34:55;;;;;;;;;;;;;;;19.32;53.16;99915.31;3152088;28;19951;-63
2023/09/28 05:36:25;;;;;;;;;;;;;;;19.36;52.89;99914.09;3153682;28;19928;-66
2023/09/28 05:37:57;;;;;;;;;;;;;;;19.39;52.98;99913.84;3157338;28;19943;-65
2023/09/28 05:39:27;;;;;;;;;;;;;;;19.40;52.96;99914.69;3156782;28;20412;-63
2023/09/28 05:40:59;;;;;;;;;;;;;;;19.32;53.14;99915.31;3156053;28;19968;-64
2023/09/28 05:42:34;;;;;;;;;;;;;;;19.28;53.34;99916.50;3157118;28;19985;-63
2023/09/28 05:44:05;;;;;;;;;;;;;;;19.31;53.36;99910.97;3157020;28;19928;-64
2023/09/28 05:45:38;;;;;;;;;;;;;;;19.35;53.26;99920.34;3156577;28;20011;-64
2023/09/28 05:47:08;;;;;;;;;;;;;;;19.34;53.30;99918.66;3156823;28;19928;-64
2023/09/28 05:48:40;;;;;;;;;;;;;;;19.33;53.40;99912.53;3151663;28;20017;-64
2023/09/28 05:50:11;;;;;;;;;;;;;;;19.36;53.31;99916.75;3155382;28;19930;-63
2023/09/28 05:51:42;;;;;;;;;;;;;;;19.40;53.37;99912.88;3156452;28;19924;-63
2023/09/28 05:53:13;;;;;;;;;;;;;;;19.46;53.12;99911.56;3156425;28;20388;-63
2023/09/28 05:54:45;;;;;;;;;;;;;;;19.52;53.18;99918.97;3156540;28;19928;-63
2023/09/28 05:56:15;;;;;;;;;;;;;;;19.58;53.09;99917.66;3156834;28;20338;-63
2023/09/28 05:57:49;;;;;;;;;;;;;;;19.63;52.85;99913.69;3152959;28;19934;-63
2023/09/28 05:59:19;;;;;;;;;;;;;;;19.69;52.90;99907.09;3144605;28;20342;-64
2023/09/28 06:00:51;;;;;;;;;;;;;;;19.74;52.76;99908.41;3156158;28;19931;-63
2023/09/28 06:02:21;;;;;;;;;;;;;;;19.80;52.57;99916.78;3148368;28;19932;-65
2023/09/28 06:03:53;;;;;;;;;;;;;;;19.85;52.35;99925.19;3155993;28;20294;-63
2023/09/28 06:05:24;;;;;;;;;;;;;;;19.87;52.56;99923.25;3155977;28;19935;-62
2023/09/28 06:06:55;;;;;;;;;;;;;;;19.83;52.60;99920.00;3158893;28;20316;-62
2023/09/28 06:08:26;;;;;;;;;;;;;;;19.82;52.50;99925.41;3158191;28;19928;-62
2023/09/28 06:09:58;;;;;;;;;;;;;;;19.84;52.71;99928.78;3155780;28;19932;-62
2023/09/28 06:11:29;;;;;;;;;;;;;;;19.87;52.49;99929.38;3153446;28;19928;-65
2023/09/28 06:13:02;;;;;;;;;;;;;;;19.88;52.49;99933.69;3159334;28;20316;-63
2023/09/28 06:14:34;;;;;;;;;;;;;;;19.91;52.46;99941.38;3159204;28;20412;-62
2023/09/28 06:16:05;;;;;;;;;;;;;;;19.94;52.36;99935.84;3159058;28;20259;-62
2023/09/28 06:17:36;;;;;;;;;;;;;;;19.93;52.39;99936.78;3159352;28;19931;-63
2023/09/28 06:19:07;;;;;;;;;;;;;;;19.95;52.40;99940.16;3159290;28;19962;-62
2023/09/28 06:20:38;;;;;;;;;;;;;;;19.94;52.49;99943.78;3158884;28;20326;-62
2023/09/28 06:22:10;;;;;;;;;;;;;;;19.91;52.54;99937.91;3159084;28;19981;-62
2023/09/28 06:23:42;;;;;;;;;;;;;;;19.92;52.33;99947.50;3159141;28;19993;-62
2023/09/28 06:25:12;;;;;;;;;;;;;;;19.92;52.38;99948.34;3159260;28;19928;-62
2023/09/28 06:26:44;;;;;;;;;;;;;;;19.98;52.28;99947.00;3159023;28;19927;-63
2023/09/28 06:28:16;;;;;;;;;;;;;;;19.99;52.49;99949.53;3158925;28;19935;-63
2023/09/28 06:29:52;;;;;;;;;;;;;;;19.97;52.29;99942.69;3159330;28;20135;-64
2023/09/28 06:31:23;;;;;;;;;;;;;;;19.95;52.41;99949.88;3158196;28;19984;-63
2023/09/28 06:32:55;;;;;;;;;;;;;;;19.95;52.51;99952.53;3152895;28;20005;-62
2023/09/28 06:34:25;;;;;;;;;;;;;;;19.98;52.44;99953.13;3158620;28;19928;-63
2023/09/28 06:35:59;;;;;;;;;;;;;;;19.99;52.43;99953.94;3158973;28;20411;-62
2023/09/28 06:37:30;;;;;;;;;;;;;;;20.01;52.48;99946.75;3158763;28;20017;-62
2023/09/28 06:39:03;;;;;;;;;;;;;;;20.02;52.40;99953.69;3163185;28;19943;-64
2023/09/28 06:40:35;;;;;;;;;;;;;;;20.05;52.42;99955.25;3158209;28;20326;-62
2023/09/28 06:42:06;;;;;;;;;;;;;;;20.07;52.39;99953.34;3158311;28;19924;-63
2023/09/28 06:43:39;;;;;;;;;;;;;;;20.07;52.33;99951.53;3158579;28;19969;-62
2023/09/28 06:45:11;;;;;;;;;;;;;;;20.07;52.35;99959.44;3158463;28;19975;-62
2023/09/28 06:46:44;;;;;;;;;;;;;;;20.05;52.44;99948.16;3158964;28;19924;-64
2023/09/28 06:48:15;;;;;;;;;;;;;;;20.07;52.51;99956.81;3158736;28;20011;-64
2023/09/28 06:49:47;;;;;;;;;;;;;;;20.06;52.72;99954.31;3158800;28;19928;-65
2023/09/28 06:51:19;;;;;;;;;;;;;;;20.05;52.64;99953.44;3159115;28;19924;-63
2023/09/28 06:52:51;;;;;;;;;;;;;;;20.06;52.51;99952.50;3158917;28;20018;-61
2023/09/28 06:54:23;;;;;;;;;;;;;;;20.10;52.50;99956.56;3158522;28;19978;-62
2023/09/28 06:55:55;;;;;;;;;;;;;;;20.10;52.36;99959.19;3158583;28;20388;-63
2023/09/28 06:57:27;;;;;;;;;;;;;;;20.09;52.52;99957.53;3153799;28;19936;-61
2023/09/28 06:58:59;;;;;;;;;;;;;;;20.10;52.27;99959.19;3156367;28;19928;-62
2023/09/28 07:00:31;;;;;;;;;;;;;;;20.12;52.42;99964.38;3158510;28;19928;-61
2023/09/28 07:02:02;;;;;;;;;;;;;;;20.09;52.57;99959.34;3158544;28;19924;-63
2023/09/28 07:03:33;;;;;;;;;;;;;;;20.07;52.49;99962.09;3158638;28;19947;-63
2023/09/28 07:05:04;;;;;;;;;;;;;;;20.09;52.47;99960.19;3155977;28;19928;-61
2023/09/28 07:06:36;;;;;;;;;;;;;;;20.12;52.47;99964.38;3156572;28;20499;-63
2023/09/28 07:08:07;;;;;;;;;;;;;;;20.13;52.18;99966.03;3150949;28;19930;-63
2023/09/28 07:09:38;;;;;;;;;;;;;;;20.14;52.52;99959.78;3158439;28;19939;-63
2023/09/28 07:11:09;;;;;;;;;;;;;;;20.19;52.52;99965.53;3158047;28;20438;-64
2023/09/28 07:12:41;;;;;;;;;;;;;;;20.25;52.47;99957.09;3158508;28;19924;-63
2023/09/28 07:14:13;;;;;;;;;;;;;;;20.51;52.64;99959.38;3158382;28;19958;-63
2023/09/28 07:15:45;;;;;;;;;;;;;;;20.90;52.62;99953.34;3157605;28;19935;-63
2023/09/28 07:19:25;;;;;;;;;;;;;;;21.67;51.02;99964.41;3152706;28;19920;-62
2023/09/28 07:20:57;;;;;;;;;;;;;;;21.82;50.52;99968.31;3154202;28;19924;-63
2023/09/28 07:22:28;;;;;;;;;;;;;;;21.92;50.46;99968.38;3158160;28;20307;-61
2023/09/28 07:24:00;;;;;;;;;;;;;;;21.98;50.18;99973.94;3158557;28;19935;-62
2023/09/28 07:25:31;;;;;;;;;;;;;;;21.97;49.59;99972.25;3158376;28;20313;-61
2023/09/28 07:27:03;;;;;;;;;;;;;;;21.94;49.86;99974.34;3158022;28;19993;-64
2023/09/28 07:28:34;;;;;;;;;;;;;;;21.83;49.37;99975.31;3153561;28;19928;-61
2023/09/28 07:30:08;;;;;;;;;;;;;;;21.77;49.49;99970.56;3158039;28;19928;-65
2023/09/28 07:31:40;;;;;;;;;;;;;;;21.71;49.41;99971.97;3154144;28;19928;-65
2023/09/28 07:33:13;;;;;;;;;;;;;;;21.66;49.31;99973.34;3149007;28;19930;-67
2023/09/28 07:34:44;;;;;;;;;;;;;;;21.60;49.41;99968.59;3158399;28;20655;-65
2023/09/28 07:36:16;;;;;;;;;;;;;;;21.57;49.43;99975.00;3157897;28;19924;-65
2023/09/28 07:37:47;;;;;;;;;;;;;;;21.50;49.26;99977.34;3159092;28;19971;-65
2023/09/28 07:39:20;;;;;;;;;;;;;;;21.47;49.42;99974.94;3158310;28;19932;-65
2023/09/28 07:40:50;;;;;;;;;;;;;;;21.46;49.35;99973.28;3148156;28;19924;-67
2023/09/28 07:42:23;;;;;;;;;;;;;;;21.48;49.36;99973.16;3158129;28;19940;-64
2023/09/28 07:43:54;;;;;;;;;;;;;;;21.49;49.07;99966.88;3158765;28;19932;-66
2023/09/28 07:45:27;;;;;;;;;;;;;;;21.51;49.07;99970.22;3158033;28;19931;-68
2023/09/28 07:46:58;;;;;;;;;;;;;;;21.53;49.08;99977.06;3158271;28;20316;-67
2023/09/28 07:48:29;;;;;;;;;;;;;;;21.55;48.51;99968.97;3158466;28;19985;-68
2023/09/28 07:50:00;;;;;;;;;;;;;;;21.56;48.24;99966.22;3158269;28;19931;-69
2023/09/28 07:51:32;;;;;;;;;;;;;;;21.57;48.51;99970.53;3157932;28;20338;-67
2023/09/28 07:53:02;;;;;;;;;;;;;;;21.62;48.53;99967.44;3157847;28;19924;-67
2023/09/28 07:54:34;;;;;;;;;;;;;;;21.71;48.41;99968.44;3158202;28;19928;-69
2023/09/28 07:56:05;;;;;;;;;;;;;;;21.76;48.25;99972.38;3157973;28;20302;-69
2023/09/28 07:57:36;;;;;;;;;;;;;;;21.80;48.13;99965.84;3155768;28;19931;-68
2023/09/28 07:59:07;;;;;;;;;;;;;;;21.85;47.80;99968.06;3157927;28;19924;-69
2023/09/28 08:00:40;;;;;;;;;;;;;;;21.91;47.93;99966.66;3157627;28;20003;-67